sensor_id;sensor_type;location;lat;lon;timestamp;P1;P2;P0
44933;PMS3003;30667;43.614;1.442;2023-11-21T00:01:44;4.50;3.50;0.00
44933;PMS3003;30667;43.614;1.442;2023-11-21T00:04:09;4.25;3.00;1.00
44933;PMS3003;30667;43.614;1.442;2023-11-21T00:06:35;2.75;2.00;0.00
44933;PMS3003;30667;43.614;1.442;2023-11-21T00:09:00;3.00;3.00;1.00
44933;PMS3003;30667;43.614;1.442;2023-11-21T00:11:26;3.25;2.50;0.25
44933;PMS3003;30667;43.614;1.442;2023-11-21T00:13:51;3.75;3.00;0.00
44933;PMS3003;30667;43.614;1.442;2023-11-21T00:16:17;5.75;2.00;0.00
44933;PMS3003;30667;43.614;1.442;2023-11-21T00:18:42;2.00;2.00;0.00
44933;PMS3003;30667;43.614;1.442;2023-11-21T00:21:08;3.00;2.00;0.00
44933;PMS3003;30667;43.614;1.442;2023-11-21T00:23:34;3.00;2.00;0.00
44933;PMS3003;30667;43.614;1.442;2023-11-21T00:26:00;4.80;2.20;0.00
44933;PMS3003;30667;43.614;1.442;2023-11-21T00:28:26;4.75;4.00;0.00
44933;PMS3003;30667;43.614;1.442;2023-11-21T00:30:51;3.00;3.00;0.00
44933;PMS3003;30667;43.614;1.442;2023-11-21T00:33:17;3.00;2.50;0.00
44933;PMS3003;30667;43.614;1.442;2023-11-21T00:35:42;4.50;2.00;0.00
44933;PMS3003;30667;43.614;1.442;2023-11-21T00:38:08;2.75;2.50;0.00
44933;PMS3003;30667;43.614;1.442;2023-11-21T00:40:36;2.60;2.60;0.00
44933;PMS3003;30667;43.614;1.442;2023-11-21T00:43:01;4.00;3.50;0.00
44933;PMS3003;30667;43.614;1.442;2023-11-21T00:45:27;3.00;2.50;1.00
44933;PMS3003;30667;43.614;1.442;2023-11-21T00:47:52;5.00;4.00;0.00
44933;PMS3003;30667;43.614;1.442;2023-11-21T00:50:18;2.20;2.20;0.00
44933;PMS3003;30667;43.614;1.442;2023-11-21T00:52:44;5.80;3.00;0.00
44933;PMS3003;30667;43.614;1.442;2023-11-21T00:55:09;3.00;2.00;0.00
44933;PMS3003;30667;43.614;1.442;2023-11-21T00:57:35;4.60;3.00;1.00
44933;PMS3003;30667;43.614;1.442;2023-11-21T01:00:00;2.00;2.00;0.00
44933;PMS3003;30667;43.614;1.442;2023-11-21T01:02:26;3.00;2.00;0.00
44933;PMS3003;30667;43.614;1.442;2023-11-21T01:04:51;2.00;1.50;0.00
44933;PMS3003;30667;43.614;1.442;2023-11-21T01:07:17;1.50;1.25;0.00
44933;PMS3003;30667;43.614;1.442;2023-11-21T01:09:45;2.00;2.00;0.00
44933;PMS3003;30667;43.614;1.442;2023-11-21T01:12:11;2.60;2.20;0.00
44933;PMS3003;30667;43.614;1.442;2023-11-21T01:14:36;4.00;2.00;0.00
44933;PMS3003;30667;43.614;1.442;2023-11-21T01:17:01;3.00;2.25;0.00
44933;PMS3003;30667;43.614;1.442;2023-11-21T01:19:29;3.40;2.00;0.00
44933;PMS3003;30667;43.614;1.442;2023-11-21T01:21:54;3.00;2.50;0.25
44933;PMS3003;30667;43.614;1.442;2023-11-21T01:24:19;1.25;1.25;0.00
44933;PMS3003;30667;43.614;1.442;2023-11-21T01:26:45;1.00;1.00;0.00
44933;PMS3003;30667;43.614;1.442;2023-11-21T01:29:11;0.40;0.40;0.00
44933;PMS3003;30667;43.614;1.442;2023-11-21T01:31:37;2.00;1.00;0.00
44933;PMS3003;30667;43.614;1.442;2023-11-21T01:34:02;1.50;1.00;0.00
44933;PMS3003;30667;43.614;1.442;2023-11-21T01:36:31;1.75;1.75;0.00
44933;PMS3003;30667;43.614;1.442;2023-11-21T01:38:57;1.20;1.00;0.00
44933;PMS3003;30667;43.614;1.442;2023-11-21T01:41:24;2.40;2.20;0.00
44933;PMS3003;30667;43.614;1.442;2023-11-21T01:43:53;3.80;3.00;0.00
44933;PMS3003;30667;43.614;1.442;2023-11-21T01:46:19;2.00;1.00;0.00
44933;PMS3003;30667;43.614;1.442;2023-11-21T01:48:46;1.00;1.00;0.00
44933;PMS3003;30667;43.614;1.442;2023-11-21T01:51:13;1.00;1.00;0.00
44933;PMS3003;30667;43.614;1.442;2023-11-21T01:53:39;1.00;1.00;0.00
44933;PMS3003;30667;43.614;1.442;2023-11-21T01:56:04;1.50;1.50;0.00
44933;PMS3003;30667;43.614;1.442;2023-11-21T01:58:33;1.00;1.00;0.00
44933;PMS3003;30667;43.614;1.442;2023-11-21T02:00:58;3.00;1.75;0.00
44933;PMS3003;30667;43.614;1.442;2023-11-21T02:03:24;2.00;1.00;0.00
44933;PMS3003;30667;43.614;1.442;2023-11-21T02:05:51;3.00;1.00;0.00
44933;PMS3003;30667;43.614;1.442;2023-11-21T02:08:18;2.00;1.00;0.00
44933;PMS3003;30667;43.614;1.442;2023-11-21T02:10:44;1.00;0.60;0.00
44933;PMS3003;30667;43.614;1.442;2023-11-21T02:13:10;1.80;1.20;0.00
44933;PMS3003;30667;43.614;1.442;2023-11-21T02:15:36;1.50;1.00;0.00
44933;PMS3003;30667;43.614;1.442;2023-11-21T02:18:03;2.00;1.40;0.00
44933;PMS3003;30667;43.614;1.442;2023-11-21T02:20:31;1.00;1.00;0.00
44933;PMS3003;30667;43.614;1.442;2023-11-21T02:22:59;1.60;0.40;0.00
44933;PMS3003;30667;43.614;1.442;2023-11-21T02:25:31;1.25;1.25;0.00
44933;PMS3003;30667;43.614;1.442;2023-11-21T02:28:01;1.80;1.20;0.00
44933;PMS3003;30667;43.614;1.442;2023-11-21T02:30:28;1.00;1.00;0.00
44933;PMS3003;30667;43.614;1.442;2023-11-21T02:32:55;3.00;1.00;0.00
44933;PMS3003;30667;43.614;1.442;2023-11-21T02:35:22;0.20;0.20;0.00
44933;PMS3003;30667;43.614;1.442;2023-11-21T02:37:48;1.60;1.00;0.00
44933;PMS3003;30667;43.614;1.442;2023-11-21T02:40:14;2.00;2.00;0.00
44933;PMS3003;30667;43.614;1.442;2023-11-21T02:42:43;1.40;1.00;0.00
44933;PMS3003;30667;43.614;1.442;2023-11-21T02:45:12;3.00;1.40;0.00
44933;PMS3003;30667;43.614;1.442;2023-11-21T02:47:41;1.00;1.00;0.00
44933;PMS3003;30667;43.614;1.442;2023-11-21T02:50:07;1.00;1.00;0.00
44933;PMS3003;30667;43.614;1.442;2023-11-21T02:52:34;1.00;1.00;0.00
44933;PMS3003;30667;43.614;1.442;2023-11-21T02:55:00;2.00;1.00;0.00
44933;PMS3003;30667;43.614;1.442;2023-11-21T02:57:26;2.00;1.20;0.00
44933;PMS3003;30667;43.614;1.442;2023-11-21T02:59:51;2.75;2.00;0.00
44933;PMS3003;30667;43.614;1.442;2023-11-21T03:02:17;1.75;0.75;0.00
44933;PMS3003;30667;43.614;1.442;2023-11-21T03:04:42;1.75;1.75;0.00
44933;PMS3003;30667;43.614;1.442;2023-11-21T03:07:08;0.75;0.75;0.00
44933;PMS3003;30667;43.614;1.442;2023-11-21T03:09:34;0.00;0.00;0.00
44933;PMS3003;30667;43.614;1.442;2023-11-21T03:12:00;0.60;0.60;0.00
44933;PMS3003;30667;43.614;1.442;2023-11-21T03:14:25;1.00;1.00;0.00
44933;PMS3003;30667;43.614;1.442;2023-11-21T03:16:51;2.00;2.00;0.00
44933;PMS3003;30667;43.614;1.442;2023-11-21T03:19:16;1.75;1.00;0.00
44933;PMS3003;30667;43.614;1.442;2023-11-21T03:21:42;2.00;2.00;0.00
44933;PMS3003;30667;43.614;1.442;2023-11-21T03:24:07;1.00;1.00;0.00
44933;PMS3003;30667;43.614;1.442;2023-11-21T03:26:33;2.25;0.50;0.00
44933;PMS3003;30667;43.614;1.442;2023-11-21T03:28:59;1.00;1.00;0.00
44933;PMS3003;30667;43.614;1.442;2023-11-21T03:31:24;2.00;1.00;0.00
44933;PMS3003;30667;43.614;1.442;2023-11-21T03:33:49;1.00;1.00;0.00
44933;PMS3003;30667;43.614;1.442;2023-11-21T03:36:15;2.00;1.00;0.00
44933;PMS3003;30667;43.614;1.442;2023-11-21T03:38:40;2.25;1.00;0.00
44933;PMS3003;30667;43.614;1.442;2023-11-21T03:41:06;1.80;1.00;0.00
44933;PMS3003;30667;43.614;1.442;2023-11-21T03:43:32;2.00;2.00;0.00
44933;PMS3003;30667;43.614;1.442;2023-11-21T03:45:57;0.50;0.50;0.00
44933;PMS3003;30667;43.614;1.442;2023-11-21T03:48:23;1.75;1.00;0.00
44933;PMS3003;30667;43.614;1.442;2023-11-21T03:50:48;2.00;2.00;0.00
44933;PMS3003;30667;43.614;1.442;2023-11-21T03:53:13;0.50;0.50;0.00
44933;PMS3003;30667;43.614;1.442;2023-11-21T03:55:39;1.00;0.75;0.00
44933;PMS3003;30667;43.614;1.442;2023-11-21T03:58:04;1.00;1.00;0.00
44933;PMS3003;30667;43.614;1.442;2023-11-21T04:00:30;1.00;1.00;0.00
44933;PMS3003;30667;43.614;1.442;2023-11-21T04:02:55;3.00;1.00;0.00
44933;PMS3003;30667;43.614;1.442;2023-11-21T04:05:21;1.00;1.00;0.00
44933;PMS3003;30667;43.614;1.442;2023-11-21T04:07:48;1.00;1.00;0.00
44933;PMS3003;30667;43.614;1.442;2023-11-21T04:10:16;1.00;1.00;0.00
44933;PMS3003;30667;43.614;1.442;2023-11-21T04:12:41;1.50;1.00;0.00
44933;PMS3003;30667;43.614;1.442;2023-11-21T04:15:07;2.50;1.00;0.00
44933;PMS3003;30667;43.614;1.442;2023-11-21T04:17:34;1.00;1.00;0.00
44933;PMS3003;30667;43.614;1.442;2023-11-21T04:20:00;1.60;1.20;0.00
44933;PMS3003;30667;43.614;1.442;2023-11-21T04:22:25;1.00;1.00;0.00
44933;PMS3003;30667;43.614;1.442;2023-11-21T04:24:50;1.00;1.00;0.00
44933;PMS3003;30667;43.614;1.442;2023-11-21T04:27:16;0.00;0.00;0.00
44933;PMS3003;30667;43.614;1.442;2023-11-21T04:29:43;1.60;1.00;0.00
44933;PMS3003;30667;43.614;1.442;2023-11-21T04:32:09;1.00;1.00;0.00
44933;PMS3003;30667;43.614;1.442;2023-11-21T04:34:34;0.75;0.75;0.00
44933;PMS3003;30667;43.614;1.442;2023-11-21T04:37:00;1.25;1.00;0.00
44933;PMS3003;30667;43.614;1.442;2023-11-21T04:39:25;2.00;1.00;0.00
44933;PMS3003;30667;43.614;1.442;2023-11-21T04:41:51;1.00;1.00;0.00
44933;PMS3003;30667;43.614;1.442;2023-11-21T04:44:16;2.25;2.00;0.00
44933;PMS3003;30667;43.614;1.442;2023-11-21T04:46:42;1.00;1.00;0.00
44933;PMS3003;30667;43.614;1.442;2023-11-21T04:49:07;1.25;1.25;0.00
44933;PMS3003;30667;43.614;1.442;2023-11-21T04:51:33;1.00;1.00;0.00
44933;PMS3003;30667;43.614;1.442;2023-11-21T04:53:58;1.00;1.00;0.00
44933;PMS3003;30667;43.614;1.442;2023-11-21T04:56:24;2.00;1.00;0.00
44933;PMS3003;30667;43.614;1.442;2023-11-21T04:58:49;0.00;0.00;0.00
44933;PMS3003;30667;43.614;1.442;2023-11-21T05:01:15;1.00;0.75;0.00
44933;PMS3003;30667;43.614;1.442;2023-11-21T05:03:41;1.00;1.00;0.00
44933;PMS3003;30667;43.614;1.442;2023-11-21T05:06:06;2.00;1.00;0.00
44933;PMS3003;30667;43.614;1.442;2023-11-21T05:08:34;2.00;1.00;0.00
44933;PMS3003;30667;43.614;1.442;2023-11-21T05:11:02;1.80;1.00;0.00
44933;PMS3003;30667;43.614;1.442;2023-11-21T05:13:27;1.00;1.00;0.00
44933;PMS3003;30667;43.614;1.442;2023-11-21T05:15:54;2.60;0.60;0.00
44933;PMS3003;30667;43.614;1.442;2023-11-21T05:18:22;1.00;1.00;0.00
44933;PMS3003;30667;43.614;1.442;2023-11-21T05:20:47;2.50;1.00;0.00
44933;PMS3003;30667;43.614;1.442;2023-11-21T05:23:13;1.75;1.25;0.00
44933;PMS3003;30667;43.614;1.442;2023-11-21T05:25:38;1.00;1.00;0.00
44933;PMS3003;30667;43.614;1.442;2023-11-21T05:28:03;2.00;2.00;0.00
44933;PMS3003;30667;43.614;1.442;2023-11-21T05:30:29;0.00;0.00;0.00
44933;PMS3003;30667;43.614;1.442;2023-11-21T05:32:54;1.75;1.00;0.00
44933;PMS3003;30667;43.614;1.442;2023-11-21T05:35:20;1.50;1.00;0.00
44933;PMS3003;30667;43.614;1.442;2023-11-21T05:37:46;0.00;0.00;0.00
44933;PMS3003;30667;43.614;1.442;2023-11-21T05:40:11;0.75;0.75;0.00
44933;PMS3003;30667;43.614;1.442;2023-11-21T05:42:38;1.80;1.40;0.00
44933;PMS3003;30667;43.614;1.442;2023-11-21T05:45:05;0.80;0.60;0.00
44933;PMS3003;30667;43.614;1.442;2023-11-21T05:47:44;0.40;0.40;0.00
44933;PMS3003;30667;43.614;1.442;2023-11-21T05:50:12;0.60;0.60;0.00
44933;PMS3003;30667;43.614;1.442;2023-11-21T05:52:42;1.00;1.00;0.00
44933;PMS3003;30667;43.614;1.442;2023-11-21T05:55:11;1.60;1.00;0.00
44933;PMS3003;30667;43.614;1.442;2023-11-21T05:57:38;1.20;0.80;0.00
44933;PMS3003;30667;43.614;1.442;2023-11-21T06:00:05;2.00;0.40;0.00
44933;PMS3003;30667;43.614;1.442;2023-11-21T06:03:01;1.40;1.00;0.00
44933;PMS3003;30667;43.614;1.442;2023-11-21T06:05:27;1.80;1.80;0.00
44933;PMS3003;30667;43.614;1.442;2023-11-21T06:07:53;2.50;1.00;0.00
44933;PMS3003;30667;43.614;1.442;2023-11-21T06:10:21;0.00;0.00;0.00
44933;PMS3003;30667;43.614;1.442;2023-11-21T06:12:48;1.80;1.00;0.00
44933;PMS3003;30667;43.614;1.442;2023-11-21T06:15:14;2.00;1.00;0.00
44933;PMS3003;30667;43.614;1.442;2023-11-21T06:17:40;1.00;1.00;0.00
44933;PMS3003;30667;43.614;1.442;2023-11-21T06:20:07;1.00;1.00;0.00
44933;PMS3003;30667;43.614;1.442;2023-11-21T06:22:40;1.00;1.00;0.00
44933;PMS3003;30667;43.614;1.442;2023-11-21T06:25:07;2.00;1.00;0.00
44933;PMS3003;30667;43.614;1.442;2023-11-21T06:27:40;3.80;1.80;0.00
44933;PMS3003;30667;43.614;1.442;2023-11-21T06:30:07;1.40;0.60;0.00
44933;PMS3003;30667;43.614;1.442;2023-11-21T06:32:34;1.00;1.00;0.00
44933;PMS3003;30667;43.614;1.442;2023-11-21T06:35:03;1.80;1.00;0.00
44933;PMS3003;30667;43.614;1.442;2023-11-21T06:40:45;2.60;1.40;0.00
44933;PMS3003;30667;43.614;1.442;2023-11-21T06:43:11;2.00;1.00;0.00
44933;PMS3003;30667;43.614;1.442;2023-11-21T06:45:36;1.00;1.00;0.00
44933;PMS3003;30667;43.614;1.442;2023-11-21T06:48:02;1.00;0.50;0.00
44933;PMS3003;30667;43.614;1.442;2023-11-21T06:50:27;1.50;1.00;0.00
44933;PMS3003;30667;43.614;1.442;2023-11-21T06:52:52;0.25;0.25;0.00
44933;PMS3003;30667;43.614;1.442;2023-11-21T06:55:18;3.75;2.00;0.00
44933;PMS3003;30667;43.614;1.442;2023-11-21T06:57:43;0.50;0.50;0.00
44933;PMS3003;30667;43.614;1.442;2023-11-21T07:00:09;0.60;0.60;0.00
44933;PMS3003;30667;43.614;1.442;2023-11-21T07:02:36;2.00;1.60;0.00
44933;PMS3003;30667;43.614;1.442;2023-11-21T07:05:02;0.75;0.50;0.00
44933;PMS3003;30667;43.614;1.442;2023-11-21T07:07:27;1.00;1.00;0.00
44933;PMS3003;30667;43.614;1.442;2023-11-21T07:09:53;1.00;1.00;0.00
44933;PMS3003;30667;43.614;1.442;2023-11-21T07:12:18;1.00;1.00;0.00
44933;PMS3003;30667;43.614;1.442;2023-11-21T07:14:44;1.00;1.00;0.00
44933;PMS3003;30667;43.614;1.442;2023-11-21T07:17:10;2.00;2.00;0.00
44933;PMS3003;30667;43.614;1.442;2023-11-21T07:19:37;1.80;1.00;0.00
44933;PMS3003;30667;43.614;1.442;2023-11-21T07:22:03;0.80;0.80;0.00
44933;PMS3003;30667;43.614;1.442;2023-11-21T07:24:28;1.50;1.00;0.00
44933;PMS3003;30667;43.614;1.442;2023-11-21T07:26:53;1.00;1.00;0.00
44933;PMS3003;30667;43.614;1.442;2023-11-21T07:29:21;2.00;1.00;0.00
44933;PMS3003;30667;43.614;1.442;2023-11-21T07:31:48;1.40;1.00;0.00
44933;PMS3003;30667;43.614;1.442;2023-11-21T07:34:14;1.00;1.00;0.00
44933;PMS3003;30667;43.614;1.442;2023-11-21T07:36:40;1.00;1.00;0.00
44933;PMS3003;30667;43.614;1.442;2023-11-21T07:39:05;1.25;1.00;0.00
44933;PMS3003;30667;43.614;1.442;2023-11-21T07:41:31;3.00;2.00;0.00
44933;PMS3003;30667;43.614;1.442;2023-11-21T07:43:57;1.00;1.00;0.00
44933;PMS3003;30667;43.614;1.442;2023-11-21T07:46:22;1.00;1.00;0.00
44933;PMS3003;30667;43.614;1.442;2023-11-21T07:48:49;1.00;0.20;0.00
44933;PMS3003;30667;43.614;1.442;2023-11-21T07:51:14;1.00;1.00;0.00
44933;PMS3003;30667;43.614;1.442;2023-11-21T07:53:40;0.00;0.00;0.00
44933;PMS3003;30667;43.614;1.442;2023-11-21T07:56:06;1.25;1.00;0.00
44933;PMS3003;30667;43.614;1.442;2023-11-21T07:58:35;2.00;2.00;0.00
44933;PMS3003;30667;43.614;1.442;2023-11-21T08:01:02;0.60;0.60;0.00
44933;PMS3003;30667;43.614;1.442;2023-11-21T08:03:28;0.80;0.80;0.00
44933;PMS3003;30667;43.614;1.442;2023-11-21T08:05:55;2.00;1.20;0.00
44933;PMS3003;30667;43.614;1.442;2023-11-21T08:08:21;1.00;1.00;0.00
44933;PMS3003;30667;43.614;1.442;2023-11-21T08:10:47;0.00;0.00;0.00
44933;PMS3003;30667;43.614;1.442;2023-11-21T08:13:13;1.00;1.00;0.00
44933;PMS3003;30667;43.614;1.442;2023-11-21T08:15:39;2.00;1.00;0.00
44933;PMS3003;30667;43.614;1.442;2023-11-21T08:18:05;0.40;0.40;0.00
44933;PMS3003;30667;43.614;1.442;2023-11-21T08:20:32;1.20;1.00;0.00
44933;PMS3003;30667;43.614;1.442;2023-11-21T08:22:59;1.00;1.00;0.00
44933;PMS3003;30667;43.614;1.442;2023-11-21T08:25:25;1.20;1.00;0.00
44933;PMS3003;30667;43.614;1.442;2023-11-21T08:27:52;1.00;0.60;0.00
44933;PMS3003;30667;43.614;1.442;2023-11-21T08:30:17;0.25;0.25;0.00
44933;PMS3003;30667;43.614;1.442;2023-11-21T08:32:44;1.00;1.00;0.00
44933;PMS3003;30667;43.614;1.442;2023-11-21T08:35:10;0.50;0.25;0.00
44933;PMS3003;30667;43.614;1.442;2023-11-21T08:37:36;1.00;1.00;0.00
44933;PMS3003;30667;43.614;1.442;2023-11-21T08:40:05;0.60;0.40;0.00
44933;PMS3003;30667;43.614;1.442;2023-11-21T08:42:34;1.00;1.00;0.00
44933;PMS3003;30667;43.614;1.442;2023-11-21T08:45:00;1.00;1.00;0.00
44933;PMS3003;30667;43.614;1.442;2023-11-21T08:47:25;0.75;0.75;0.00
44933;PMS3003;30667;43.614;1.442;2023-11-21T08:49:51;1.00;1.00;0.00
44933;PMS3003;30667;43.614;1.442;2023-11-21T08:52:20;2.00;2.00;0.00
44933;PMS3003;30667;43.614;1.442;2023-11-21T08:54:49;1.00;1.00;0.00
44933;PMS3003;30667;43.614;1.442;2023-11-21T08:57:21;1.00;1.00;0.00
44933;PMS3003;30667;43.614;1.442;2023-11-21T08:59:49;1.00;1.00;0.00
44933;PMS3003;30667;43.614;1.442;2023-11-21T09:02:20;2.00;1.00;0.00
44933;PMS3003;30667;43.614;1.442;2023-11-21T09:04:52;1.00;1.00;0.00
44933;PMS3003;30667;43.614;1.442;2023-11-21T09:07:20;2.00;1.00;0.00
44933;PMS3003;30667;43.614;1.442;2023-11-21T09:09:46;2.00;1.00;0.00
44933;PMS3003;30667;43.614;1.442;2023-11-21T09:12:13;2.00;2.00;0.00
44933;PMS3003;30667;43.614;1.442;2023-11-21T09:14:39;2.00;1.50;0.00
44933;PMS3003;30667;43.614;1.442;2023-11-21T09:17:05;1.00;1.00;0.00
44933;PMS3003;30667;43.614;1.442;2023-11-21T09:19:36;0.80;0.80;0.00
44933;PMS3003;30667;43.614;1.442;2023-11-21T09:22:02;1.00;1.00;0.00
44933;PMS3003;30667;43.614;1.442;2023-11-21T09:24:28;1.00;1.00;0.00
44933;PMS3003;30667;43.614;1.442;2023-11-21T09:26:53;1.00;1.00;0.00
44933;PMS3003;30667;43.614;1.442;2023-11-21T09:29:19;0.00;0.00;0.00
44933;PMS3003;30667;43.614;1.442;2023-11-21T09:31:44;1.75;1.00;0.00
44933;PMS3003;30667;43.614;1.442;2023-11-21T09:34:10;1.25;1.25;0.00
44933;PMS3003;30667;43.614;1.442;2023-11-21T09:36:36;1.00;1.00;0.00
44933;PMS3003;30667;43.614;1.442;2023-11-21T09:39:04;0.20;0.00;0.00
44933;PMS3003;30667;43.614;1.442;2023-11-21T09:44:28;2.00;1.00;0.00
44933;PMS3003;30667;43.614;1.442;2023-11-21T09:47:00;0.00;0.00;0.00
44933;PMS3003;30667;43.614;1.442;2023-11-21T09:49:26;1.80;1.00;0.00
44933;PMS3003;30667;43.614;1.442;2023-11-21T09:51:55;1.00;1.00;0.00
44933;PMS3003;30667;43.614;1.442;2023-11-21T09:54:23;1.20;1.00;0.00
44933;PMS3003;30667;43.614;1.442;2023-11-21T09:56:50;1.00;1.00;0.00
44933;PMS3003;30667;43.614;1.442;2023-11-21T09:59:15;2.00;1.00;0.00
44933;PMS3003;30667;43.614;1.442;2023-11-21T10:01:41;1.25;1.25;0.00
44933;PMS3003;30667;43.614;1.442;2023-11-21T10:04:08;1.00;1.00;0.00
44933;PMS3003;30667;43.614;1.442;2023-11-21T10:06:39;1.00;1.00;0.00
44933;PMS3003;30667;43.614;1.442;2023-11-21T10:09:07;1.00;0.60;0.00
44933;PMS3003;30667;43.614;1.442;2023-11-21T10:11:40;1.80;1.80;0.00
44933;PMS3003;30667;43.614;1.442;2023-11-21T10:14:06;2.00;1.00;0.00
44933;PMS3003;30667;43.614;1.442;2023-11-21T10:16:35;1.20;0.80;0.00
44933;PMS3003;30667;43.614;1.442;2023-11-21T10:19:02;1.00;1.00;0.00
44933;PMS3003;30667;43.614;1.442;2023-11-21T10:21:29;2.00;1.00;0.00
44933;PMS3003;30667;43.614;1.442;2023-11-21T10:23:55;0.00;0.00;0.00
44933;PMS3003;30667;43.614;1.442;2023-11-21T10:26:20;0.50;0.25;0.00
44933;PMS3003;30667;43.614;1.442;2023-11-21T10:28:58;1.80;1.20;0.00
44933;PMS3003;30667;43.614;1.442;2023-11-21T10:31:27;0.00;0.00;0.00
44933;PMS3003;30667;43.614;1.442;2023-11-21T10:33:52;0.40;0.20;0.00
44933;PMS3003;30667;43.614;1.442;2023-11-21T10:36:25;0.80;0.80;0.00
44933;PMS3003;30667;43.614;1.442;2023-11-21T10:38:53;2.00;1.00;0.00
44933;PMS3003;30667;43.614;1.442;2023-11-21T10:41:19;0.80;0.80;0.00
44933;PMS3003;30667;43.614;1.442;2023-11-21T10:43:48;1.60;1.00;0.00
44933;PMS3003;30667;43.614;1.442;2023-11-21T10:46:14;2.00;1.00;0.00
44933;PMS3003;30667;43.614;1.442;2023-11-21T10:48:41;0.40;0.40;0.00
44933;PMS3003;30667;43.614;1.442;2023-11-21T10:51:07;1.00;1.00;0.00
44933;PMS3003;30667;43.614;1.442;2023-11-21T10:53:34;1.00;1.00;0.00
44933;PMS3003;30667;43.614;1.442;2023-11-21T10:56:05;1.00;1.00;0.00
44933;PMS3003;30667;43.614;1.442;2023-11-21T10:58:33;2.40;2.40;0.00
44933;PMS3003;30667;43.614;1.442;2023-11-21T11:01:01;2.00;2.00;0.00
44933;PMS3003;30667;43.614;1.442;2023-11-21T11:03:31;1.40;1.40;0.00
44933;PMS3003;30667;43.614;1.442;2023-11-21T11:05:58;2.00;1.00;0.00
44933;PMS3003;30667;43.614;1.442;2023-11-21T11:08:24;1.00;1.00;0.00
44933;PMS3003;30667;43.614;1.442;2023-11-21T11:10:51;1.00;1.00;0.00
44933;PMS3003;30667;43.614;1.442;2023-11-21T11:13:17;4.80;4.40;1.00
44933;PMS3003;30667;43.614;1.442;2023-11-21T11:15:43;3.00;3.00;0.00
44933;PMS3003;30667;43.614;1.442;2023-11-21T11:18:12;2.40;2.40;0.40
44933;PMS3003;30667;43.614;1.442;2023-11-21T11:20:38;3.00;2.60;0.80
44933;PMS3003;30667;43.614;1.442;2023-11-21T11:23:10;3.00;2.00;0.00
44933;PMS3003;30667;43.614;1.442;2023-11-21T11:26:09;2.00;2.00;0.00
44933;PMS3003;30667;43.614;1.442;2023-11-21T11:36:55;2.20;1.60;0.00
44933;PMS3003;30667;43.614;1.442;2023-11-21T11:39:36;2.00;2.00;0.00
44933;PMS3003;30667;43.614;1.442;2023-11-21T11:42:04;2.20;2.00;0.00
44933;PMS3003;30667;43.614;1.442;2023-11-21T11:47:14;1.80;1.80;0.00
44933;PMS3003;30667;43.614;1.442;2023-11-21T11:50:07;1.00;1.00;0.00
44933;PMS3003;30667;43.614;1.442;2023-11-21T11:55:17;1.40;1.40;0.00
44933;PMS3003;30667;43.614;1.442;2023-11-21T11:57:44;3.00;3.00;1.00
44933;PMS3003;30667;43.614;1.442;2023-11-21T12:00:16;4.60;4.00;1.00
44933;PMS3003;30667;43.614;1.442;2023-11-21T12:02:50;2.40;2.00;1.00
44933;PMS3003;30667;43.614;1.442;2023-11-21T12:05:17;2.60;2.00;0.00
44933;PMS3003;30667;43.614;1.442;2023-11-21T12:07:45;2.80;2.40;0.80
44933;PMS3003;30667;43.614;1.442;2023-11-21T12:10:20;2.80;2.00;0.00
44933;PMS3003;30667;43.614;1.442;2023-11-21T12:12:50;2.60;2.60;0.20
44933;PMS3003;30667;43.614;1.442;2023-11-21T12:15:19;4.80;2.40;0.00
44933;PMS3003;30667;43.614;1.442;2023-11-21T12:17:46;2.00;1.20;0.00
44933;PMS3003;30667;43.614;1.442;2023-11-21T12:20:14;2.00;2.00;0.00
44933;PMS3003;30667;43.614;1.442;2023-11-21T12:22:49;1.00;1.00;0.00
44933;PMS3003;30667;43.614;1.442;2023-11-21T12:25:25;2.00;1.00;0.00
44933;PMS3003;30667;43.614;1.442;2023-11-21T12:27:56;1.00;1.00;0.00
44933;PMS3003;30667;43.614;1.442;2023-11-21T12:30:23;2.80;2.80;0.00
44933;PMS3003;30667;43.614;1.442;2023-11-21T12:32:53;1.20;1.00;0.00
44933;PMS3003;30667;43.614;1.442;2023-11-21T12:35:21;1.80;1.80;0.00
44933;PMS3003;30667;43.614;1.442;2023-11-21T12:37:49;1.80;1.80;0.00
44933;PMS3003;30667;43.614;1.442;2023-11-21T12:40:16;1.80;1.80;0.00
44933;PMS3003;30667;43.614;1.442;2023-11-21T12:42:42;2.00;2.00;0.00
44933;PMS3003;30667;43.614;1.442;2023-11-21T12:45:21;1.40;1.00;0.00
44933;PMS3003;30667;43.614;1.442;2023-11-21T12:47:50;2.80;2.60;0.40
44933;PMS3003;30667;43.614;1.442;2023-11-21T12:50:24;2.60;2.00;0.00
44933;PMS3003;30667;43.614;1.442;2023-11-21T12:52:53;3.00;3.00;1.00
44933;PMS3003;30667;43.614;1.442;2023-11-21T12:55:23;2.20;2.00;0.20
44933;PMS3003;30667;43.614;1.442;2023-11-21T12:57:49;3.00;3.00;0.00
44933;PMS3003;30667;43.614;1.442;2023-11-21T13:00:17;1.80;1.80;0.00
44933;PMS3003;30667;43.614;1.442;2023-11-21T13:02:56;1.60;1.00;0.00
44933;PMS3003;30667;43.614;1.442;2023-11-21T13:05:27;2.60;2.20;0.00
44933;PMS3003;30667;43.614;1.442;2023-11-21T13:07:58;2.60;2.00;1.00
44933;PMS3003;30667;43.614;1.442;2023-11-21T13:10:27;2.40;2.40;1.00
44933;PMS3003;30667;43.614;1.442;2023-11-21T13:12:58;3.20;3.00;0.80
44933;PMS3003;30667;43.614;1.442;2023-11-21T13:15:24;2.00;2.00;0.20
44933;PMS3003;30667;43.614;1.442;2023-11-21T13:17:50;3.25;3.00;1.00
44933;PMS3003;30667;43.614;1.442;2023-11-21T13:20:16;2.80;2.80;0.80
44933;PMS3003;30667;43.614;1.442;2023-11-21T13:23:06;4.00;3.00;1.00
44933;PMS3003;30667;43.614;1.442;2023-11-21T13:25:36;3.00;2.00;1.00
44933;PMS3003;30667;43.614;1.442;2023-11-21T13:28:03;3.00;3.00;1.00
44933;PMS3003;30667;43.614;1.442;2023-11-21T13:30:30;7.00;6.00;2.00
44933;PMS3003;30667;43.614;1.442;2023-11-21T13:33:04;3.00;3.00;1.00
44933;PMS3003;30667;43.614;1.442;2023-11-21T13:35:32;2.20;2.00;1.00
44933;PMS3003;30667;43.614;1.442;2023-11-21T13:38:12;2.20;2.20;1.00
44933;PMS3003;30667;43.614;1.442;2023-11-21T13:40:39;2.60;2.00;0.00
44933;PMS3003;30667;43.614;1.442;2023-11-21T13:43:14;2.60;2.40;1.00
44933;PMS3003;30667;43.614;1.442;2023-11-21T13:45:40;8.80;8.60;4.00
44933;PMS3003;30667;43.614;1.442;2023-11-21T13:48:07;4.80;4.80;2.00
44933;PMS3003;30667;43.614;1.442;2023-11-21T13:50:37;2.40;2.40;1.00
44933;PMS3003;30667;43.614;1.442;2023-11-21T13:53:03;3.60;3.00;0.60
44933;PMS3003;30667;43.614;1.442;2023-11-21T13:55:43;3.00;2.00;0.00
44933;PMS3003;30667;43.614;1.442;2023-11-21T13:58:10;5.00;3.80;0.00
44933;PMS3003;30667;43.614;1.442;2023-11-21T14:00:41;3.00;2.20;0.80
44933;PMS3003;30667;43.614;1.442;2023-11-21T14:03:10;3.80;3.00;1.00
44933;PMS3003;30667;43.614;1.442;2023-11-21T14:05:44;2.00;2.00;1.00
44933;PMS3003;30667;43.614;1.442;2023-11-21T14:08:12;4.60;3.80;1.00
44933;PMS3003;30667;43.614;1.442;2023-11-21T14:10:41;3.00;3.00;1.00
44933;PMS3003;30667;43.614;1.442;2023-11-21T14:13:14;4.00;3.20;1.00
44933;PMS3003;30667;43.614;1.442;2023-11-21T14:15:41;3.00;3.00;1.00
44933;PMS3003;30667;43.614;1.442;2023-11-21T14:18:10;4.00;3.00;1.00
44933;PMS3003;30667;43.614;1.442;2023-11-21T14:20:37;4.00;3.00;1.00
44933;PMS3003;30667;43.614;1.442;2023-11-21T14:23:03;4.20;3.00;1.00
44933;PMS3003;30667;43.614;1.442;2023-11-21T14:25:35;4.00;3.60;1.20
44933;PMS3003;30667;43.614;1.442;2023-11-21T14:28:04;2.00;2.00;1.00
44933;PMS3003;30667;43.614;1.442;2023-11-21T14:30:31;3.00;2.60;1.00
44933;PMS3003;30667;43.614;1.442;2023-11-21T14:33:01;3.20;3.20;1.00
44933;PMS3003;30667;43.614;1.442;2023-11-21T14:35:27;3.00;2.20;0.60
44933;PMS3003;30667;43.614;1.442;2023-11-21T14:37:55;5.40;4.00;1.00
44933;PMS3003;30667;43.614;1.442;2023-11-21T14:40:20;4.00;4.00;1.00
44933;PMS3003;30667;43.614;1.442;2023-11-21T14:42:49;4.00;3.00;1.00
44933;PMS3003;30667;43.614;1.442;2023-11-21T14:45:18;6.20;6.00;1.00